sensor_id;sensor_type;location;lat;lon;timestamp;pressure;altitude;pressure_sealevel;temperature;humidity
25664;BME280;13522;50.018;20.014;2023-04-10T00:01:47;99624.14;;;7.08;100.00
25664;BME280;13522;50.018;20.014;2023-04-10T00:04:59;99617.48;;;7.02;100.00
25664;BME280;13522;50.018;20.014;2023-04-10T00:08:11;99610.52;;;7.01;100.00
25664;BME280;13522;50.018;20.014;2023-04-10T00:11:24;99605.42;;;6.98;100.00
25664;BME280;13522;50.018;20.014;2023-04-10T00:14:36;99607.53;;;6.93;100.00
25664;BME280;13522;50.018;20.014;2023-04-10T00:17:48;99607.59;;;6.91;100.00
25664;BME280;13522;50.018;20.014;2023-04-10T00:21:03;99600.82;;;6.87;100.00
25664;BME280;13522;50.018;20.014;2023-04-10T00:24:15;99599.04;;;6.88;100.00
25664;BME280;13522;50.018;20.014;2023-04-10T00:27:27;99595.86;;;6.83;100.00
25664;BME280;13522;50.018;20.014;2023-04-10T00:30:40;99604.53;;;6.85;100.00
25664;BME280;13522;50.018;20.014;2023-04-10T00:33:52;99593.30;;;6.81;100.00
25664;BME280;13522;50.018;20.014;2023-04-10T00:37:04;99598.69;;;6.80;100.00
25664;BME280;13522;50.018;20.014;2023-04-10T00:40:16;99603.43;;;6.75;100.00
25664;BME280;13522;50.018;20.014;2023-04-10T00:43:29;99600.05;;;6.73;100.00
25664;BME280;13522;50.018;20.014;2023-04-10T00:46:41;99609.10;;;6.69;100.00
25664;BME280;13522;50.018;20.014;2023-04-10T00:49:54;99621.16;;;6.73;100.00
25664;BME280;13522;50.018;20.014;2023-04-10T00:53:06;99622.84;;;6.74;100.00
25664;BME280;13522;50.018;20.014;2023-04-10T00:56:20;99608.89;;;6.72;100.00
25664;BME280;13522;50.018;20.014;2023-04-10T00:59:34;99611.45;;;6.73;100.00
25664;BME280;13522;50.018;20.014;2023-04-10T01:02:48;99603.43;;;6.75;100.00
25664;BME280;13522;50.018;20.014;2023-04-10T01:06:04;99614.73;;;6.77;100.00
25664;BME280;13522;50.018;20.014;2023-04-10T01:09:28;99610.39;;;6.76;100.00
25664;BME280;13522;50.018;20.014;2023-04-10T01:12:55;99606.71;;;6.78;100.00
25664;BME280;13522;50.018;20.014;2023-04-10T01:16:15;99602.93;;;6.82;100.00
25664;BME280;13522;50.018;20.014;2023-04-10T01:19:34;99594.27;;;6.80;100.00
25664;BME280;13522;50.018;20.014;2023-04-10T01:23:05;99597.65;;;6.82;100.00
25664;BME280;13522;50.018;20.014;2023-04-10T01:26:31;99592.27;;;6.84;100.00
25664;BME280;13522;50.018;20.014;2023-04-10T01:29:52;99593.97;;;6.85;100.00
25664;BME280;13522;50.018;20.014;2023-04-10T01:33:08;99589.63;;;6.84;100.00
25664;BME280;13522;50.018;20.014;2023-04-10T01:36:24;99592.27;;;6.84;100.00
25664;BME280;13522;50.018;20.014;2023-04-10T01:39:40;99586.98;;;6.84;100.00
25664;BME280;13522;50.018;20.014;2023-04-10T01:42:56;99586.13;;;6.83;100.00
25664;BME280;13522;50.018;20.014;2023-04-10T01:46:12;99586.80;;;6.87;100.00
25664;BME280;13522;50.018;20.014;2023-04-10T01:49:27;99588.37;;;6.89;100.00
25664;BME280;13522;50.018;20.014;2023-04-10T01:52:41;99590.08;;;6.90;100.00
25664;BME280;13522;50.018;20.014;2023-04-10T01:55:59;99587.55;;;6.89;100.00
25664;BME280;13522;50.018;20.014;2023-04-10T01:59:14;99584.98;;;6.87;100.00
25664;BME280;13522;50.018;20.014;2023-04-10T02:02:30;99592.83;;;6.89;100.00
25664;BME280;13522;50.018;20.014;2023-04-10T02:05:45;99595.25;;;6.92;100.00
25664;BME280;13522;50.018;20.014;2023-04-10T02:09:06;99594.96;;;6.96;100.00
25664;BME280;13522;50.018;20.014;2023-04-10T02:12:22;99593.17;;;6.97;100.00
25664;BME280;13522;50.018;20.014;2023-04-10T02:15:40;99599.28;;;6.97;100.00
25664;BME280;13522;50.018;20.014;2023-04-10T02:18:54;99596.75;;;6.96;100.00
25664;BME280;13522;50.018;20.014;2023-04-10T02:22:08;99604.67;;;6.96;100.00
25664;BME280;13522;50.018;20.014;2023-04-10T02:25:21;99604.78;;;6.94;100.00
25664;BME280;13522;50.018;20.014;2023-04-10T02:28:33;99599.20;;;6.99;100.00
25664;BME280;13522;50.018;20.014;2023-04-10T02:31:46;99595.07;;;6.95;100.00
25664;BME280;13522;50.018;20.014;2023-04-10T02:34:58;99598.86;;;6.91;100.00
25664;BME280;13522;50.018;20.014;2023-04-10T02:38:11;99588.94;;;6.94;100.00
25664;BME280;13522;50.018;20.014;2023-04-10T02:41:23;99583.66;;;6.94;100.00
25664;BME280;13522;50.018;20.014;2023-04-10T02:44:36;99590.83;;;6.92;100.00
25664;BME280;13522;50.018;20.014;2023-04-10T02:47:49;99596.75;;;6.96;100.00
25664;BME280;13522;50.018;20.014;2023-04-10T02:51:01;99601.84;;;6.99;100.00
25664;BME280;13522;50.018;20.014;2023-04-10T02:54:14;99598.46;;;6.97;100.00
25664;BME280;13522;50.018;20.014;2023-04-10T02:57:27;99607.13;;;6.99;100.00
25664;BME280;13522;50.018;20.014;2023-04-10T03:00:39;99604.27;;;7.02;100.00
25664;BME280;13522;50.018;20.014;2023-04-10T03:03:54;99601.45;;;7.05;100.00
25664;BME280;13522;50.018;20.014;2023-04-10T03:07:10;99603.34;;;7.03;100.00
25664;BME280;13522;50.018;20.014;2023-04-10T03:10:22;99605.02;;;7.04;100.00
25664;BME280;13522;50.018;20.014;2023-04-10T03:13:34;99603.23;;;7.05;100.00
25664;BME280;13522;50.018;20.014;2023-04-10T03:16:47;99599.55;;;7.07;100.00
25664;BME280;13522;50.018;20.014;2023-04-10T03:19:59;99602.48;;;7.03;100.00
25664;BME280;13522;50.018;20.014;2023-04-10T03:23:12;99591.81;;;7.04;100.00
25664;BME280;13522;50.018;20.014;2023-04-10T03:26:24;99593.70;;;7.02;100.00
25664;BME280;13522;50.018;20.014;2023-04-10T03:29:37;99588.42;;;7.02;100.00
25664;BME280;13522;50.018;20.014;2023-04-10T03:32:50;99595.49;;;7.01;100.00
25664;BME280;13522;50.018;20.014;2023-04-10T03:36:02;99591.81;;;7.04;100.00
25664;BME280;13522;50.018;20.014;2023-04-10T03:39:15;99597.73;;;7.08;100.00
25664;BME280;13522;50.018;20.014;2023-04-10T03:42:27;99589.70;;;7.09;100.00
25664;BME280;13522;50.018;20.014;2023-04-10T03:45:40;99587.91;;;7.10;100.00
25664;BME280;13522;50.018;20.014;2023-04-10T03:48:53;99594.91;;;7.11;100.00
25664;BME280;13522;50.018;20.014;2023-04-10T03:52:07;99594.05;;;7.10;100.00
25664;BME280;13522;50.018;20.014;2023-04-10T03:55:19;99595.73;;;7.11;100.00
25664;BME280;13522;50.018;20.014;2023-04-10T03:58:33;99593.09;;;7.11;100.00
25664;BME280;13522;50.018;20.014;2023-04-10T04:01:45;99591.30;;;7.12;100.00
25664;BME280;13522;50.018;20.014;2023-04-10T04:04:58;99592.16;;;7.12;100.00
25664;BME280;13522;50.018;20.014;2023-04-10T04:08:21;99593.01;;;7.13;100.00
25664;BME280;13522;50.018;20.014;2023-04-10T04:11:38;99595.55;;;7.14;100.00
25664;BME280;13522;50.018;20.014;2023-04-10T04:15:09;99591.75;;;7.18;100.00
25664;BME280;13522;50.018;20.014;2023-04-10T04:18:26;99594.17;;;7.21;100.00
25664;BME280;13522;50.018;20.014;2023-04-10T04:21:57;99605.70;;;7.20;100.00
25664;BME280;13522;50.018;20.014;2023-04-10T04:25:11;99606.64;;;7.19;100.00
25664;BME280;13522;50.018;20.014;2023-04-10T04:28:32;99598.93;;;7.16;100.00
25664;BME280;13522;50.018;20.014;2023-04-10T04:32:03;99605.70;;;7.20;100.00
25664;BME280;13522;50.018;20.014;2023-04-10T04:35:34;99613.63;;;7.20;100.00
25664;BME280;13522;50.018;20.014;2023-04-10T04:38:57;99612.88;;;7.18;100.00
25664;BME280;13522;50.018;20.014;2023-04-10T04:42:11;99610.24;;;7.18;100.00
25664;BME280;13522;50.018;20.014;2023-04-10T04:45:25;99610.35;;;7.17;100.00
25664;BME280;13522;50.018;20.014;2023-04-10T04:48:45;99604.00;;;7.19;100.00
25664;BME280;13522;50.018;20.014;2023-04-10T04:52:00;99614.38;;;7.22;100.00
25664;BME280;13522;50.018;20.014;2023-04-10T04:55:16;99617.77;;;7.24;100.00
25664;BME280;13522;50.018;20.014;2023-04-10T04:58:33;99623.05;;;7.24;100.00
25664;BME280;13522;50.018;20.014;2023-04-10T05:01:48;99622.41;;;7.21;100.00
25664;BME280;13522;50.018;20.014;2023-04-10T05:05:03;99623.98;;;7.23;100.00
25664;BME280;13522;50.018;20.014;2023-04-10T05:08:21;99623.69;;;7.28;100.00
25664;BME280;13522;50.018;20.014;2023-04-10T05:11:35;99629.19;;;7.25;100.00
25664;BME280;13522;50.018;20.014;2023-04-10T05:14:52;99630.75;;;7.27;100.00
25664;BME280;13522;50.018;20.014;2023-04-10T05:18:06;99627.93;;;7.30;100.00
25664;BME280;13522;50.018;20.014;2023-04-10T05:21:21;99640.17;;;7.31;100.00
25664;BME280;13522;50.018;20.014;2023-04-10T05:24:41;99640.92;;;7.33;100.00
25664;BME280;13522;50.018;20.014;2023-04-10T05:27:56;99643.56;;;7.33;100.00
25664;BME280;13522;50.018;20.014;2023-04-10T05:31:27;99652.05;;;7.38;100.00
25664;BME280;13522;50.018;20.014;2023-04-10T05:34:50;99648.84;;;7.33;100.00
25664;BME280;13522;50.018;20.014;2023-04-10T05:38:10;99641.25;;;7.29;100.00
25664;BME280;13522;50.018;20.014;2023-04-10T05:41:30;99652.00;;;7.26;100.00
25664;BME280;13522;50.018;20.014;2023-04-10T05:44:56;99644.93;;;7.26;100.00
25664;BME280;13522;50.018;20.014;2023-04-10T05:48:29;99647.35;;;7.29;100.00
25664;BME280;13522;50.018;20.014;2023-04-10T05:51:55;99638.09;;;7.36;100.00
25664;BME280;13522;50.018;20.014;2023-04-10T05:55:10;99639.02;;;7.35;100.00
25664;BME280;13522;50.018;20.014;2023-04-10T05:58:33;99638.73;;;7.40;100.00
25664;BME280;13522;50.018;20.014;2023-04-10T06:01:56;99645.39;;;7.45;100.00
25664;BME280;13522;50.018;20.014;2023-04-10T06:05:09;99639.59;;;7.40;100.00
25664;BME280;13522;50.018;20.014;2023-04-10T06:08:22;99633.45;;;7.40;100.00
25664;BME280;13522;50.018;20.014;2023-04-10T06:11:35;99635.57;;;7.47;100.00
25664;BME280;13522;50.018;20.014;2023-04-10T06:14:48;99633.89;;;7.46;100.00
25664;BME280;13522;50.018;20.014;2023-04-10T06:18:00;99636.13;;;7.52;100.00
25664;BME280;13522;50.018;20.014;2023-04-10T06:21:14;99635.27;;;7.52;100.00
25664;BME280;13522;50.018;20.014;2023-04-10T06:24:26;99640.45;;;7.53;100.00
25664;BME280;13522;50.018;20.014;2023-04-10T06:27:39;99642.23;;;7.53;100.00
25664;BME280;13522;50.018;20.014;2023-04-10T06:30:51;99644.91;;;7.65;100.00
25664;BME280;13522;50.018;20.014;2023-04-10T06:34:05;99651.17;;;7.64;100.00
25664;BME280;13522;50.018;20.014;2023-04-10T06:37:25;99652.09;;;7.63;100.00
25664;BME280;13522;50.018;20.014;2023-04-10T06:40:41;99641.33;;;7.66;100.00
25664;BME280;13522;50.018;20.014;2023-04-10T06:43:53;99644.28;;;7.74;100.00
25664;BME280;13522;50.018;20.014;2023-04-10T06:47:07;99638.98;;;7.74;100.00
25664;BME280;13522;50.018;20.014;2023-04-10T06:50:22;99644.08;;;7.77;100.00
25664;BME280;13522;50.018;20.014;2023-04-10T06:53:36;99645.57;;;7.81;100.00
25664;BME280;13522;50.018;20.014;2023-04-10T06:56:48;99647.05;;;7.85;100.00
25664;BME280;13522;50.018;20.014;2023-04-10T07:00:02;99651.93;;;7.92;100.00
25664;BME280;13522;50.018;20.014;2023-04-10T07:03:15;99655.31;;;7.94;100.00
25664;BME280;13522;50.018;20.014;2023-04-10T07:06:28;99652.67;;;7.94;100.00
25664;BME280;13522;50.018;20.014;2023-04-10T07:09:41;99657.73;;;7.97;100.00
25664;BME280;13522;50.018;20.014;2023-04-10T07:12:53;99659.86;;;7.92;100.00
25664;BME280;13522;50.018;20.014;2023-04-10T07:16:08;99658.48;;;7.86;100.00
25664;BME280;13522;50.018;20.014;2023-04-10T07:19:22;99661.66;;;7.91;100.00
25664;BME280;13522;50.018;20.014;2023-04-10T07:22:35;99662.51;;;7.92;100.00
25664;BME280;13522;50.018;20.014;2023-04-10T07:25:47;99659.01;;;7.91;100.00
25664;BME280;13522;50.018;20.014;2023-04-10T07:28:59;99654.46;;;7.93;100.00
25664;BME280;13522;50.018;20.014;2023-04-10T07:32:11;99655.31;;;7.94;100.00
25664;BME280;13522;50.018;20.014;2023-04-10T07:35:24;99651.81;;;7.93;100.00
25664;BME280;13522;50.018;20.014;2023-04-10T07:38:37;99648.66;;;7.88;100.00
25664;BME280;13522;50.018;20.014;2023-04-10T07:41:50;99647.98;;;7.84;100.00
25664;BME280;13522;50.018;20.014;2023-04-10T07:45:04;99647.36;;;7.81;100.00
25664;BME280;13522;50.018;20.014;2023-04-10T07:48:18;99651.30;;;7.88;100.00
25664;BME280;13522;50.018;20.014;2023-04-10T07:51:31;99648.95;;;7.83;100.00
25664;BME280;13522;50.018;20.014;2023-04-10T07:54:44;99650.45;;;7.87;100.00
25664;BME280;13522;50.018;20.014;2023-04-10T07:57:57;99653.20;;;7.86;100.00
25664;BME280;13522;50.018;20.014;2023-04-10T08:01:10;99657.63;;;7.85;100.00
25664;BME280;13522;50.018;20.014;2023-04-10T08:04:22;99657.73;;;7.97;100.00
25664;BME280;13522;50.018;20.014;2023-04-10T08:07:35;99642.92;;;8.07;100.00
25664;BME280;13522;50.018;20.014;2023-04-10T08:10:48;99657.64;;;8.11;100.00
25664;BME280;13522;50.018;20.014;2023-04-10T08:14:02;99654.69;;;8.15;100.00
25664;BME280;13522;50.018;20.014;2023-04-10T08:17:15;99653.63;;;8.18;100.00
25664;BME280;13522;50.018;20.014;2023-04-10T08:20:27;99661.69;;;8.29;100.00
25664;BME280;13522;50.018;20.014;2023-04-10T08:23:42;99654.29;;;8.34;100.00
25664;BME280;13522;50.018;20.014;2023-04-10T08:26:56;99652.16;;;8.26;100.00
25664;BME280;13522;50.018;20.014;2023-04-10T08:30:10;99658.84;;;8.32;100.00
25664;BME280;13522;50.018;20.014;2023-04-10T08:33:22;99649.82;;;8.34;100.00
25664;BME280;13522;50.018;20.014;2023-04-10T08:36:35;99655.30;;;8.56;100.00
25664;BME280;13522;50.018;20.014;2023-04-10T08:39:47;99654.84;;;8.75;100.00
25664;BME280;13522;50.018;20.014;2023-04-10T08:42:59;99657.63;;;8.61;100.00
25664;BME280;13522;50.018;20.014;2023-04-10T08:46:12;99656.59;;;8.51;100.00
25664;BME280;13522;50.018;20.014;2023-04-10T08:49:29;99655.23;;;8.45;100.00
25664;BME280;13522;50.018;20.014;2023-04-10T08:52:45;99654.56;;;8.54;100.00
25664;BME280;13522;50.018;20.014;2023-04-10T08:56:03;99648.41;;;8.54;100.00
25664;BME280;13522;50.018;20.014;2023-04-10T08:59:17;99655.41;;;8.55;100.00
25664;BME280;13522;50.018;20.014;2023-04-10T09:02:30;99653.39;;;8.58;100.00
25664;BME280;13522;50.018;20.014;2023-04-10T09:05:45;99649.13;;;8.68;100.00
25664;BME280;13522;50.018;20.014;2023-04-10T09:08:57;99643.81;;;8.81;100.00
25664;BME280;13522;50.018;20.014;2023-04-10T09:12:10;99642.64;;;8.85;100.00
25664;BME280;13522;50.018;20.014;2023-04-10T09:15:23;99631.77;;;9.01;100.00
25664;BME280;13522;50.018;20.014;2023-04-10T09:18:46;99649.78;;;8.96;100.00
25664;BME280;13522;50.018;20.014;2023-04-10T09:22:00;99643.88;;;9.16;100.00
25664;BME280;13522;50.018;20.014;2023-04-10T09:25:27;99638.25;;;9.20;100.00
25664;BME280;13522;50.018;20.014;2023-04-10T09:28:55;99626.77;;;9.43;100.00
25664;BME280;13522;50.018;20.014;2023-04-10T09:32:11;99636.61;;;9.30;100.00
25664;BME280;13522;50.018;20.014;2023-04-10T09:35:35;99641.67;;;9.33;100.00
25664;BME280;13522;50.018;20.014;2023-04-10T09:38:51;99635.06;;;9.39;100.00
25664;BME280;13522;50.018;20.014;2023-04-10T09:42:05;99638.68;;;9.38;100.00
25664;BME280;13522;50.018;20.014;2023-04-10T09:45:19;99625.13;;;9.53;100.00
25664;BME280;13522;50.018;20.014;2023-04-10T09:48:32;99624.91;;;9.56;100.00
25664;BME280;13522;50.018;20.014;2023-04-10T09:51:44;99624.12;;;9.43;100.00
25664;BME280;13522;50.018;20.014;2023-04-10T09:54:58;99620.06;;;9.50;100.00
25664;BME280;13522;50.018;20.014;2023-04-10T09:58:13;99616.22;;;9.54;100.00
25664;BME280;13522;50.018;20.014;2023-04-10T10:01:27;99620.79;;;9.52;100.00
25664;BME280;13522;50.018;20.014;2023-04-10T10:04:42;99612.87;;;9.75;100.00
25664;BME280;13522;50.018;20.014;2023-04-10T10:07:56;99611.20;;;9.85;100.00
25664;BME280;13522;50.018;20.014;2023-04-10T10:11:10;99606.88;;;9.95;100.00
25664;BME280;13522;50.018;20.014;2023-04-10T10:14:26;99610.04;;;10.00;100.00
25664;BME280;13522;50.018;20.014;2023-04-10T10:17:48;99604.95;;;9.97;100.00
25664;BME280;13522;50.018;20.014;2023-04-10T10:21:03;99610.98;;;9.88;100.00
25664;BME280;13522;50.018;20.014;2023-04-10T10:24:17;99608.80;;;9.93;100.00
25664;BME280;13522;50.018;20.014;2023-04-10T10:27:33;99590.36;;;9.91;100.00
25664;BME280;13522;50.018;20.014;2023-04-10T10:30:47;99595.79;;;10.01;100.00
25664;BME280;13522;50.018;20.014;2023-04-10T10:34:01;99595.11;;;10.21;100.00
25664;BME280;13522;50.018;20.014;2023-04-10T10:37:15;99588.73;;;10.23;100.00
25664;BME280;13522;50.018;20.014;2023-04-10T10:40:33;99584.36;;;10.44;100.00
25664;BME280;13522;50.018;20.014;2023-04-10T10:43:52;99579.64;;;10.59;100.00
25664;BME280;13522;50.018;20.014;2023-04-10T10:47:15;99577.39;;;10.86;100.00
25664;BME280;13522;50.018;20.014;2023-04-10T10:50:50;99570.92;;;11.11;100.00
25664;BME280;13522;50.018;20.014;2023-04-10T10:54:04;99571.09;;;11.51;100.00
25664;BME280;13522;50.018;20.014;2023-04-10T10:57:48;99557.72;;;11.62;100.00
25664;BME280;13522;50.018;20.014;2023-04-10T11:01:18;99557.72;;;11.62;100.00
25664;BME280;13522;50.018;20.014;2023-04-10T11:04:48;99557.59;;;11.43;100.00
25664;BME280;13522;50.018;20.014;2023-04-10T11:08:09;99548.23;;;11.27;100.00
25664;BME280;13522;50.018;20.014;2023-04-10T11:11:22;99549.66;;;11.31;100.00
25664;BME280;13522;50.018;20.014;2023-04-10T11:14:35;99548.96;;;11.50;100.00
25664;BME280;13522;50.018;20.014;2023-04-10T11:17:51;99540.82;;;12.23;100.00
25664;BME280;13522;50.018;20.014;2023-04-10T11:21:11;99528.63;;;12.89;100.00
25664;BME280;13522;50.018;20.014;2023-04-10T11:24:24;99520.08;;;13.33;100.00
25664;BME280;13522;50.018;20.014;2023-04-10T11:27:45;99513.48;;;13.47;100.00
25664;BME280;13522;50.018;20.014;2023-04-10T11:31:11;99515.09;;;13.67;100.00
25664;BME280;13522;50.018;20.014;2023-04-10T11:34:25;99514.64;;;13.81;97.14
25664;BME280;13522;50.018;20.014;2023-04-10T11:37:38;99511.97;;;13.81;97.88
25664;BME280;13522;50.018;20.014;2023-04-10T11:41:02;99513.55;;;13.74;97.30
25664;BME280;13522;50.018;20.014;2023-04-10T11:44:16;99503.42;;;13.77;97.95
25664;BME280;13522;50.018;20.014;2023-04-10T11:47:31;99500.23;;;13.55;98.89
25664;BME280;13522;50.018;20.014;2023-04-10T11:50:44;99489.64;;;13.82;97.66
25664;BME280;13522;50.018;20.014;2023-04-10T11:54:09;99489.91;;;13.79;97.47
25664;BME280;13522;50.018;20.014;2023-04-10T11:57:23;99485.10;;;13.92;96.53
25664;BME280;13522;50.018;20.014;2023-04-10T12:00:38;99481.69;;;14.00;96.89
25664;BME280;13522;50.018;20.014;2023-04-10T12:03:51;99481.31;;;14.22;95.96
25664;BME280;13522;50.018;20.014;2023-04-10T12:07:03;99472.00;;;14.26;95.06
25664;BME280;13522;50.018;20.014;2023-04-10T12:10:16;99469.08;;;13.92;96.11
25664;BME280;13522;50.018;20.014;2023-04-10T12:13:29;99460.75;;;14.22;94.77
25664;BME280;13522;50.018;20.014;2023-04-10T12:16:43;99455.19;;;14.43;93.87
25664;BME280;13522;50.018;20.014;2023-04-10T12:19:56;99461.88;;;14.02;94.57
25664;BME280;13522;50.018;20.014;2023-04-10T12:23:09;99449.70;;;13.90;96.12
25664;BME280;13522;50.018;20.014;2023-04-10T12:26:22;99438.94;;;14.27;94.78
25664;BME280;13522;50.018;20.014;2023-04-10T12:29:34;99433.64;;;14.44;93.51
25664;BME280;13522;50.018;20.014;2023-04-10T12:32:52;99420.23;;;14.71;92.92
25664;BME280;13522;50.018;20.014;2023-04-10T12:36:19;99429.47;;;14.77;92.83
25664;BME280;13522;50.018;20.014;2023-04-10T12:39:34;99419.66;;;14.33;94.01
25664;BME280;13522;50.018;20.014;2023-04-10T12:42:46;99409.42;;;14.99;93.98
25664;BME280;13522;50.018;20.014;2023-04-10T12:45:59;99407.39;;;14.75;90.71
25664;BME280;13522;50.018;20.014;2023-04-10T12:49:14;99399.66;;;14.72;91.05
25664;BME280;13522;50.018;20.014;2023-04-10T12:52:26;99395.70;;;14.41;93.79
25664;BME280;13522;50.018;20.014;2023-04-10T12:55:38;99405.55;;;13.59;96.43
25664;BME280;13522;50.018;20.014;2023-04-10T12:59:05;99400.50;;;13.10;99.17
25664;BME280;13522;50.018;20.014;2023-04-10T13:02:18;99376.73;;;13.26;99.91
25664;BME280;13522;50.018;20.014;2023-04-10T13:05:31;99371.94;;;13.39;99.99
25664;BME280;13522;50.018;20.014;2023-04-10T13:08:43;99370.09;;;13.39;99.62
25664;BME280;13522;50.018;20.014;2023-04-10T13:11:58;99360.45;;;13.29;99.93
25664;BME280;13522;50.018;20.014;2023-04-10T13:15:12;99350.28;;;13.69;98.84
25664;BME280;13522;50.018;20.014;2023-04-10T13:18:25;99342.83;;;14.17;95.56
25664;BME280;13522;50.018;20.014;2023-04-10T13:21:37;99342.63;;;14.63;93.81
25664;BME280;13522;50.018;20.014;2023-04-10T13:24:49;99335.25;;;15.09;92.62
25664;BME280;13522;50.018;20.014;2023-04-10T13:28:02;99336.81;;;14.50;92.68
25664;BME280;13522;50.018;20.014;2023-04-10T13:31:16;99333.27;;;14.15;94.27
25664;BME280;13522;50.018;20.014;2023-04-10T13:34:28;99324.31;;;14.33;94.14
25664;BME280;13522;50.018;20.014;2023-04-10T13:37:42;99321.55;;;14.43;93.36
25664;BME280;13522;50.018;20.014;2023-04-10T13:40:56;99319.31;;;14.73;92.45
25664;BME280;13522;50.018;20.014;2023-04-10T13:44:08;99310.16;;;15.10;92.02
25664;BME280;13522;50.018;20.014;2023-04-10T13:47:21;99316.20;;;14.86;90.68
25664;BME280;13522;50.018;20.014;2023-04-10T13:50:34;99307.72;;;14.91;91.85
25664;BME280;13522;50.018;20.014;2023-04-10T13:53:46;99293.09;;;15.36;89.95
25664;BME280;13522;50.018;20.014;2023-04-10T13:56:58;99281.58;;;15.10;89.13
25664;BME280;13522;50.018;20.014;2023-04-10T14:00:13;99278.97;;;14.93;90.27
25664;BME280;13522;50.018;20.014;2023-04-10T14:03:25;99264.19;;;14.81;91.55
25664;BME280;13522;50.018;20.014;2023-04-10T14:06:39;99283.61;;;14.39;92.34
25664;BME280;13522;50.018;20.014;2023-04-10T14:09:51;99276.28;;;14.06;94.53
25664;BME280;13522;50.018;20.014;2023-04-10T14:13:03;99272.16;;;14.12;94.94
25664;BME280;13522;50.018;20.014;2023-04-10T14:16:16;99280.77;;;14.23;94.86
25664;BME280;13522;50.018;20.014;2023-04-10T14:19:29;99281.91;;;14.21;94.71
25664;BME280;13522;50.018;20.014;2023-04-10T14:22:42;99265.75;;;14.40;93.95
25664;BME280;13522;50.018;20.014;2023-04-10T14:25:55;99260.78;;;14.70;92.56
25664;BME280;13522;50.018;20.014;2023-04-10T14:29:08;99255.88;;;14.92;91.68
25664;BME280;13522;50.018;20.014;2023-04-10T14:32:22;99259.87;;;14.88;90.91
25664;BME280;13522;50.018;20.014;2023-04-10T14:35:34;99249.45;;;14.76;92.03
25664;BME280;13522;50.018;20.014;2023-04-10T14:38:47;99241.77;;;14.73;91.77
25664;BME280;13522;50.018;20.014;2023-04-10T14:41:59;99239.66;;;14.59;91.33
25664;BME280;13522;50.018;20.014;2023-04-10T14:45:12;99241.70;;;14.40;92.35
25664;BME280;13522;50.018;20.014;2023-04-10T14:48:24;99236.30;;;14.32;94.01
25664;BME280;13522;50.018;20.014;2023-04-10T14:51:37;99237.27;;;14.31;93.57
25664;BME280;13522;50.018;20.014;2023-04-10T14:54:50;99239.55;;;14.43;93.86
25664;BME280;13522;50.018;20.014;2023-04-10T14:58:02;99227.00;;;14.26;93.91
25664;BME280;13522;50.018;20.014;2023-04-10T15:01:16;99226.75;;;14.29;94.02
25664;BME280;13522;50.018;20.014;2023-04-10T15:04:29;99243.04;;;14.26;95.27
25664;BME280;13522;50.018;20.014;2023-04-10T15:07:44;99262.59;;;14.27;97.22
25664;BME280;13522;50.018;20.014;2023-04-10T15:10:56;99290.61;;;13.87;100.00
25664;BME280;13522;50.018;20.014;2023-04-10T15:14:10;99295.36;;;13.49;100.00
25664;BME280;13522;50.018;20.014;2023-04-10T15:17:23;99334.41;;;13.13;100.00
25664;BME280;13522;50.018;20.014;2023-04-10T15:20:35;99321.07;;;13.13;100.00
25664;BME280;13522;50.018;20.014;2023-04-10T15:23:48;99303.95;;;12.96;100.00
25664;BME280;13522;50.018;20.014;2023-04-10T15:27:01;99276.94;;;12.72;100.00
25664;BME280;13522;50.018;20.014;2023-04-10T15:30:14;99278.78;;;12.62;100.00
25664;BME280;13522;50.018;20.014;2023-04-10T15:33:26;99245.32;;;12.41;100.00
25664;BME280;13522;50.018;20.014;2023-04-10T15:36:40;99255.27;;;12.39;100.00
25664;BME280;13522;50.018;20.014;2023-04-10T15:39:52;99256.13;;;12.39;100.00
25664;BME280;13522;50.018;20.014;2023-04-10T15:43:04;99258.09;;;12.37;100.00
25664;BME280;13522;50.018;20.014;2023-04-10T15:46:19;99259.38;;;12.24;100.00
25664;BME280;13522;50.018;20.014;2023-04-10T15:49:32;99253.61;;;12.18;100.00
25664;BME280;13522;50.018;20.014;2023-04-10T15:52:44;99252.90;;;12.26;100.00
25664;BME280;13522;50.018;20.014;2023-04-10T15:55:57;99251.09;;;12.17;100.00
25664;BME280;13522;50.018;20.014;2023-04-10T15:59:09;99248.73;;;12.14;100.00
25664;BME280;13522;50.018;20.014;2023-04-10T16:02:21;99239.34;;;12.10;100.00
25664;BME280;13522;50.018;20.014;2023-04-10T16:05:34;99238.51;;;12.00;100.00
25664;BME280;13522;50.018;20.014;2023-04-10T16:08:46;99242.13;;;11.99;100.00
25664;BME280;13522;50.018;20.014;2023-04-10T16:12:02;99237.11;;;11.96;100.00
25664;BME280;13522;50.018;20.014;2023-04-10T16:15:15;99232.05;;;11.93;100.00
25664;BME280;13522;50.018;20.014;2023-04-10T16:18:28;99237.38;;;11.93;100.00
25664;BME280;13522;50.018;20.014;2023-04-10T16:21:41;99239.77;;;11.96;100.00
25664;BME280;13522;50.018;20.014;2023-04-10T16:24:56;99251.67;;;11.92;100.00
25664;BME280;13522;50.018;20.014;2023-04-10T16:28:09;99239.06;;;11.94;100.00
25664;BME280;13522;50.018;20.014;2023-04-10T16:31:21;99238.63;;;11.89;100.00
25664;BME280;13522;50.018;20.014;2023-04-10T16:34:33;99245.65;;;11.90;100.00
25664;BME280;13522;50.018;20.014;2023-04-10T16:37:46;99240.33;;;11.90;100.00
25664;BME280;13522;50.018;20.014;2023-04-10T16:41:01;99240.19;;;11.82;100.00
25664;BME280;13522;50.018;20.014;2023-04-10T16:44:15;99234.02;;;11.72;100.00
25664;BME280;13522;50.018;20.014;2023-04-10T16:47:27;99229.47;;;11.63;100.00
25664;BME280;13522;50.018;20.014;2023-04-10T16:50:39;99234.23;;;11.59;100.00
25664;BME280;13522;50.018;20.014;2023-04-10T16:53:52;99235.22;;;11.49;100.00
25664;BME280;13522;50.018;20.014;2023-04-10T16:57:04;99243.86;;;11.41;100.00